createdAt,value
2023-05-20T00:02:10.967Z,15.10
2023-05-20T00:04:37.853Z,15.10
2023-05-20T00:07:05.294Z,15.10
2023-05-20T00:09:34.625Z,15.10
2023-05-20T00:12:01.450Z,15.10
2023-05-20T00:14:28.250Z,15.00
2023-05-20T00:16:55.056Z,15.00
2023-05-20T00:19:22.140Z,15.00
2023-05-20T00:21:49.019Z,14.90
2023-05-20T00:24:15.932Z,14.80
2023-05-20T00:26:42.742Z,14.70
2023-05-20T00:29:09.492Z,14.70
2023-05-20T03:02:36.622Z,12.70
2023-05-20T03:05:05.197Z,12.60
2023-05-20T03:07:34.461Z,12.50
2023-05-20T03:10:04.921Z,12.30
2023-05-20T03:12:34.117Z,12.30
2023-05-20T03:51:58.456Z,11.70
2023-05-20T03:54:25.186Z,11.80
2023-05-20T03:56:52.065Z,11.80
2023-05-20T03:59:19.557Z,11.70
2023-05-20T04:01:46.398Z,11.70
2023-05-20T04:04:13.237Z,11.60
2023-05-20T04:06:40.510Z,11.60
2023-05-20T04:09:07.309Z,11.60
2023-05-20T04:11:34.122Z,11.50
2023-05-20T04:14:00.970Z,11.50
2023-05-20T04:16:29.509Z,11.50
2023-05-20T04:18:59.111Z,11.60
2023-05-20T04:21:28.271Z,11.40
2023-05-20T04:23:55.590Z,11.40
2023-05-20T04:26:24.546Z,11.40
2023-05-20T04:28:51.293Z,11.40
2023-05-20T04:31:18.724Z,11.30
2023-05-20T04:33:46.667Z,11.40
2023-05-20T04:36:16.253Z,11.30
2023-05-20T04:38:44.577Z,11.50
2023-05-20T04:41:11.441Z,11.50
2023-05-20T04:43:40.111Z,11.40
2023-05-20T04:46:07.355Z,11.40
2023-05-20T04:48:34.625Z,11.60
2023-05-20T04:51:01.379Z,11.70
2023-05-20T04:53:30.510Z,11.80
2023-05-20T04:55:57.341Z,11.80
2023-05-20T04:58:25.009Z,11.80
2023-05-20T05:00:52.660Z,11.80
2023-05-20T05:03:22.615Z,11.80
2023-05-20T05:05:49.257Z,11.90
2023-05-20T05:08:18.336Z,11.90
2023-05-20T05:10:46.469Z,12.00
2023-05-20T05:13:13.338Z,12.10
2023-05-20T05:15:42.594Z,12.20
2023-05-20T05:18:09.628Z,12.30
2023-05-20T05:20:36.510Z,12.40
2023-05-20T05:23:06.068Z,12.50
2023-05-20T05:25:33.352Z,12.70
2023-05-20T05:30:29.728Z,12.80
2023-05-20T05:32:56.668Z,13.00
2023-05-20T05:35:23.458Z,13.00
2023-05-20T06:52:37.936Z,14.70
2023-05-20T06:55:05.711Z,14.70
2023-05-20T06:57:32.572Z,14.70
2023-05-20T07:00:01.816Z,14.70
2023-05-20T07:02:28.716Z,14.70
2023-05-20T07:04:55.441Z,14.80
2023-05-20T07:07:22.193Z,14.90
2023-05-20T07:09:48.960Z,15.00
2023-05-20T07:12:15.972Z,15.10
2023-05-20T07:14:45.495Z,15.10
2023-05-20T07:17:12.953Z,15.00
2023-05-20T07:19:39.764Z,15.00
2023-05-20T07:22:06.502Z,14.90
2023-05-20T07:24:33.471Z,14.90
2023-05-20T07:27:00.427Z,15.00
2023-05-20T07:29:27.440Z,15.00
2023-05-20T07:31:54.466Z,15.10
2023-05-20T07:36:53.549Z,15.50
2023-05-20T07:39:20.538Z,15.40
2023-05-20T07:41:49.577Z,15.60
2023-05-20T07:44:19.103Z,15.40
2023-05-20T07:46:50.656Z,15.50
2023-05-20T07:49:17.469Z,15.60
2023-05-20T07:51:44.253Z,15.70
2023-05-20T07:54:11.809Z,15.80
2023-05-20T07:59:08.171Z,16.20
2023-05-20T08:01:38.003Z,16.00
2023-05-20T08:04:09.675Z,16.10
2023-05-20T08:06:36.529Z,16.10
2023-05-20T08:09:05.784Z,16.10
2023-05-20T08:13:59.878Z,16.10
2023-05-20T08:16:26.724Z,16.40
2023-05-20T08:26:24.456Z,16.90
2023-05-20T08:28:51.172Z,16.90
2023-05-20T08:31:18.949Z,16.90
2023-05-20T08:33:45.873Z,16.90
2023-05-20T08:36:12.674Z,16.90
2023-05-20T08:38:39.457Z,17.00
2023-05-20T08:41:08.433Z,17.00
2023-05-20T08:43:37.975Z,17.10
2023-05-20T08:46:06.828Z,17.20
2023-05-20T08:48:35.121Z,17.20
2023-05-20T08:51:03.655Z,17.30
2023-05-20T08:53:30.830Z,17.40
2023-05-20T08:56:02.943Z,17.40
2023-05-20T08:58:33.026Z,17.40
2023-05-20T09:06:09.532Z,17.80
2023-05-20T09:08:39.040Z,17.70
2023-05-20T09:11:05.810Z,17.70
2023-05-20T09:13:32.774Z,17.80
2023-05-20T09:16:02.823Z,17.80
2023-05-20T09:18:30.293Z,18.00
2023-05-20T09:20:57.301Z,18.00
2023-05-20T09:23:25.645Z,18.10
2023-05-20T09:25:54.626Z,18.10
2023-05-20T09:28:25.373Z,18.20
2023-05-20T09:31:00.312Z,18.10
2023-05-20T09:33:34.836Z,18.30
2023-05-20T09:36:07.816Z,18.30
2023-05-20T09:38:40.144Z,18.30
2023-05-20T09:41:12.752Z,18.30
2023-05-20T09:43:42.916Z,18.40
2023-05-20T09:53:36.268Z,18.50
2023-05-20T09:56:03.383Z,18.60
2023-05-20T09:58:32.798Z,18.60
2023-05-20T10:00:59.671Z,18.60
2023-05-20T10:03:28.043Z,18.60
2023-05-20T10:06:21.012Z,18.60
2023-05-20T10:09:18.527Z,18.60
2023-05-20T10:11:56.592Z,18.60
2023-05-20T10:14:34.500Z,18.50
2023-05-20T10:17:24.665Z,18.40
2023-05-20T10:20:01.007Z,18.30
2023-05-20T10:22:29.845Z,18.20
2023-05-20T10:25:01.281Z,18.20
2023-05-20T10:27:30.235Z,18.30
2023-05-20T10:29:57.924Z,18.40
2023-05-20T10:32:29.828Z,18.50
2023-05-20T10:35:02.028Z,18.40
2023-05-20T10:37:30.518Z,18.50
2023-05-20T10:47:33.121Z,19.20
2023-05-20T10:50:02.087Z,19.10
2023-05-20T10:52:33.906Z,19.10
2023-05-20T10:55:01.486Z,19.10
2023-05-20T10:57:32.251Z,19.10
2023-05-20T11:00:00.385Z,19.00
2023-05-20T11:02:30.303Z,18.90
2023-05-20T11:05:04.042Z,18.90
2023-05-20T11:07:32.102Z,18.80
2023-05-20T11:09:59.195Z,18.70
2023-05-20T11:12:29.398Z,18.80
2023-05-20T11:14:56.201Z,18.70
2023-05-20T11:17:25.355Z,18.80
2023-05-20T11:19:54.510Z,18.80
2023-05-20T11:22:21.843Z,18.80
2023-05-20T11:24:50.775Z,18.70
2023-05-20T11:27:17.532Z,18.80
2023-05-20T11:29:44.501Z,18.80
2023-05-20T11:32:12.520Z,18.90
2023-05-20T11:34:39.644Z,19.00
2023-05-20T11:37:10.334Z,19.10
2023-05-20T11:39:37.768Z,19.10
2023-05-20T11:42:06.042Z,19.10
2023-05-20T11:44:33.242Z,19.30
2023-05-20T11:47:01.756Z,19.10
2023-05-20T11:49:28.787Z,19.10
2023-05-20T11:51:56.989Z,19.10
2023-05-20T11:54:24.636Z,19.20
2023-05-20T11:56:52.935Z,19.30
2023-05-20T11:59:19.693Z,19.30
2023-05-20T12:01:49.086Z,19.40
2023-05-20T12:04:16.617Z,19.30
2023-05-20T12:06:44.239Z,19.50
2023-05-20T12:09:11.600Z,19.40
2023-05-20T12:14:08.900Z,19.50
2023-05-20T12:16:39.180Z,19.40
2023-05-20T12:19:06.209Z,19.30
2023-05-20T12:21:38.699Z,19.30
2023-05-20T12:24:08.633Z,19.30
2023-05-20T12:53:51.686Z,19.90
2023-05-20T12:56:23.815Z,20.10
2023-05-20T12:58:52.734Z,20.00
2023-05-20T13:01:21.734Z,19.80
2023-05-20T13:03:52.862Z,19.80
2023-05-20T13:06:22.186Z,19.70
2023-05-20T13:08:53.625Z,19.70
2023-05-20T13:11:22.825Z,19.70
2023-05-20T13:13:49.563Z,19.60
2023-05-20T13:16:19.676Z,19.70
2023-05-20T13:18:48.751Z,19.70
2023-05-20T13:21:15.824Z,19.60
2023-05-20T13:23:42.819Z,19.60
2023-05-20T13:26:12.005Z,19.70
2023-05-20T13:28:43.242Z,19.70
2023-05-20T13:31:12.287Z,19.90
2023-05-20T13:33:39.140Z,20.00
2023-05-20T13:36:06.143Z,19.90
2023-05-20T13:38:36.536Z,19.90
2023-05-20T13:41:04.180Z,19.90
2023-05-20T13:43:34.397Z,19.80
2023-05-20T13:46:01.304Z,19.80
2023-05-20T13:48:30.495Z,19.80
2023-05-20T13:50:57.246Z,19.70
2023-05-20T13:53:24.005Z,19.80
2023-05-20T13:55:51.230Z,19.80
2023-05-20T13:58:17.959Z,19.90
2023-05-20T14:00:47.117Z,19.90
2023-05-20T14:03:13.914Z,20.00
2023-05-20T14:05:40.875Z,19.90
2023-05-20T14:08:10.155Z,19.90
2023-05-20T14:10:37.040Z,19.90
2023-05-20T14:13:04.152Z,19.90
2023-05-20T14:15:33.025Z,19.80
2023-05-20T14:17:59.870Z,19.90
2023-05-20T14:20:27.064Z,19.80
2023-05-20T14:22:56.265Z,19.90
2023-05-20T14:25:23.269Z,19.80
2023-05-20T14:27:50.556Z,19.70
2023-05-20T14:30:17.271Z,19.70
2023-05-20T14:32:44.149Z,19.60
2023-05-20T14:35:11.000Z,19.50
2023-05-20T14:37:37.806Z,19.50
2023-05-20T14:40:07.463Z,19.50
2023-05-20T14:42:34.376Z,19.50
2023-05-20T14:45:01.137Z,19.50
2023-05-20T14:47:30.592Z,19.40
2023-05-20T14:49:57.514Z,19.50
2023-05-20T14:52:26.756Z,19.50
2023-05-20T14:54:53.630Z,19.60
2023-05-20T14:57:20.712Z,19.50
2023-05-20T14:59:47.696Z,19.40
2023-05-20T15:02:16.065Z,19.40
2023-05-20T15:04:45.084Z,19.40
2023-05-20T15:07:12.443Z,19.50
2023-05-20T15:09:44.262Z,19.50
2023-05-20T15:12:13.685Z,19.50
2023-05-20T15:14:40.452Z,19.60
2023-05-20T15:17:07.731Z,19.60
2023-05-20T15:19:36.589Z,19.60
2023-05-20T15:22:04.111Z,19.60
2023-05-20T15:24:31.139Z,19.60
2023-05-20T15:26:57.856Z,19.60
2023-05-20T15:29:24.685Z,19.60
2023-05-20T15:31:51.603Z,19.60
2023-05-20T15:34:18.616Z,19.60
2023-05-20T15:36:48.013Z,19.50
2023-05-20T15:39:14.824Z,19.50
2023-05-20T15:41:42.525Z,19.40
2023-05-20T15:44:09.554Z,19.40
2023-05-20T15:46:38.623Z,19.30
2023-05-20T15:49:05.844Z,19.30
2023-05-20T15:51:32.586Z,19.20
2023-05-20T15:53:59.304Z,19.20
2023-05-20T15:56:26.088Z,19.30
2023-05-20T15:58:55.183Z,19.30
2023-05-20T16:01:26.288Z,19.10
2023-05-20T16:03:55.230Z,19.00
2023-05-20T16:06:25.987Z,19.00
2023-05-20T16:08:55.289Z,19.10
2023-05-20T16:11:24.826Z,19.10
2023-05-20T16:13:51.603Z,19.10
2023-05-20T16:16:20.808Z,19.00
2023-05-20T16:18:50.055Z,19.00
2023-05-20T16:21:16.938Z,19.10
2023-05-20T16:23:46.248Z,19.10
2023-05-20T16:26:13.206Z,19.10
2023-05-20T16:28:42.274Z,19.10
2023-05-20T16:31:09.076Z,19.10
2023-05-20T16:33:35.988Z,19.10
2023-05-20T16:36:02.836Z,19.10
2023-05-20T16:38:29.649Z,19.10
2023-05-20T16:40:58.555Z,19.20
2023-05-20T16:43:25.471Z,19.10
2023-05-20T16:45:54.465Z,19.20
2023-05-20T16:48:21.350Z,19.20
2023-05-20T16:50:48.086Z,19.20
2023-05-20T16:53:16.405Z,19.10
2023-05-20T16:55:43.486Z,19.10
2023-05-20T16:58:10.224Z,19.10
2023-05-20T17:00:37.030Z,19.20
2023-05-20T17:03:04.258Z,19.10
2023-05-20T17:05:31.338Z,19.20
2023-05-20T17:08:00.854Z,19.10
2023-05-20T17:10:28.900Z,19.10
2023-05-20T17:12:56.008Z,19.10
2023-05-20T17:15:25.532Z,19.10
2023-05-20T17:17:52.245Z,19.10
2023-05-20T17:20:19.551Z,19.10
2023-05-20T17:22:48.801Z,19.00
2023-05-20T17:25:15.685Z,19.00
2023-05-20T17:27:42.407Z,19.00
2023-05-20T17:30:09.373Z,19.00
2023-05-20T17:32:38.715Z,18.90
2023-05-20T17:35:06.926Z,18.90
2023-05-20T17:37:36.841Z,19.00
2023-05-20T17:40:07.064Z,18.80
2023-05-20T17:42:34.079Z,18.90
2023-05-20T17:45:03.220Z,18.90
2023-05-20T17:47:30.069Z,18.90
2023-05-20T17:49:59.913Z,18.90
2023-05-20T17:52:29.032Z,18.80
2023-05-20T17:54:55.754Z,18.80
2023-05-20T17:57:22.525Z,18.70
2023-05-20T17:59:49.472Z,18.80
2023-05-20T18:02:16.433Z,18.70
2023-05-20T18:04:43.288Z,18.70
2023-05-20T18:07:11.676Z,18.70
2023-05-20T18:09:43.169Z,18.80
2023-05-20T18:12:09.913Z,18.70
2023-05-20T18:14:36.635Z,18.70
2023-05-20T18:17:03.458Z,18.70
2023-05-20T18:19:30.643Z,18.60
2023-05-20T18:21:59.805Z,18.70
2023-05-20T18:24:26.613Z,18.70
2023-05-20T18:26:55.654Z,18.70
2023-05-20T18:29:26.760Z,18.70
2023-05-20T18:31:56.120Z,18.70
2023-05-20T18:34:22.986Z,18.70
2023-05-20T18:36:49.960Z,18.80
2023-05-20T18:39:20.384Z,18.70
2023-05-20T18:41:47.896Z,18.80
2023-05-20T18:44:19.038Z,18.60
2023-05-20T18:46:46.494Z,18.60
2023-05-20T18:49:13.548Z,18.60
2023-05-20T18:51:42.212Z,18.60
2023-05-20T18:54:11.431Z,18.50
2023-05-20T18:56:40.029Z,18.60
2023-05-20T18:59:07.044Z,18.50
2023-05-20T19:01:36.470Z,18.50
2023-05-20T19:04:03.312Z,18.50
2023-05-20T19:06:31.369Z,18.50
2023-05-20T19:08:58.110Z,18.40
2023-05-20T19:11:24.873Z,18.40
2023-05-20T19:13:51.687Z,18.40
2023-05-20T19:16:20.857Z,18.40
2023-05-20T19:18:47.643Z,18.30
2023-05-20T19:21:19.501Z,18.30
2023-05-20T19:23:47.028Z,18.30
2023-05-20T19:26:13.955Z,18.20
2023-05-20T19:28:40.691Z,18.20
2023-05-20T19:31:07.634Z,18.20
2023-05-20T19:33:34.514Z,18.10
2023-05-20T19:36:03.867Z,18.00
2023-05-20T19:38:32.936Z,18.10
2023-05-20T19:40:59.681Z,18.00
2023-05-20T19:43:28.734Z,18.00
2023-05-20T19:45:55.830Z,18.00
2023-05-20T19:48:22.585Z,17.90
2023-05-20T19:50:50.844Z,17.80
2023-05-20T19:53:20.942Z,17.80
2023-05-20T19:55:53.225Z,17.80
2023-05-20T19:58:19.969Z,17.80
2023-05-20T20:00:46.666Z,17.80
2023-05-20T20:03:13.734Z,17.70
2023-05-20T20:05:45.405Z,17.60
2023-05-20T20:08:12.207Z,17.60
2023-05-20T20:10:39.023Z,17.60
2023-05-20T20:13:06.064Z,17.50
2023-05-20T20:15:37.359Z,17.50
2023-05-20T20:18:04.281Z,17.50
2023-05-20T20:20:40.006Z,17.40
2023-05-20T20:23:08.005Z,17.30
2023-05-20T20:25:44.498Z,17.30
2023-05-20T20:28:11.484Z,17.20
2023-05-20T20:30:38.363Z,17.20
2023-05-20T20:33:09.574Z,17.10
2023-05-20T20:35:37.759Z,17.10
2023-05-20T20:38:10.805Z,17.10
2023-05-20T20:40:44.911Z,17.00
2023-05-20T20:43:20.568Z,17.00
2023-05-20T20:45:47.956Z,17.00
2023-05-20T20:48:18.753Z,16.90
2023-05-20T20:50:48.523Z,16.90
2023-05-20T20:53:18.269Z,16.80
2023-05-20T20:55:46.225Z,16.70
2023-05-20T20:58:15.222Z,16.70
2023-05-20T21:00:45.744Z,16.60
2023-05-20T21:03:15.988Z,16.70
2023-05-20T21:05:42.770Z,16.70
2023-05-20T21:08:10.121Z,16.60
2023-05-20T21:10:38.281Z,16.60
2023-05-20T21:13:05.146Z,16.60
2023-05-20T21:15:32.038Z,16.60
2023-05-20T21:17:58.887Z,16.50
2023-05-20T21:20:25.670Z,16.50
2023-05-20T21:22:54.902Z,16.50
2023-05-20T21:25:21.671Z,16.40
2023-05-20T21:27:48.812Z,16.40
2023-05-20T21:30:17.324Z,16.40
2023-05-20T21:32:44.060Z,16.30
2023-05-20T21:35:13.266Z,16.20
2023-05-20T21:37:42.600Z,16.20
2023-05-20T21:40:09.738Z,16.10
2023-05-20T22:00:00.834Z,16.00
2023-05-20T22:02:27.598Z,16.00
2023-05-20T22:04:55.247Z,16.00
2023-05-20T22:07:24.297Z,16.00
2023-05-20T22:09:51.033Z,15.90
2023-05-20T22:12:20.338Z,15.90
2023-05-20T22:14:47.159Z,15.90
2023-05-20T22:17:14.598Z,15.90
2023-05-20T22:19:41.587Z,15.90
2023-05-20T22:22:08.308Z,15.90
2023-05-20T22:24:35.035Z,15.90
2023-05-20T22:27:04.512Z,15.80
2023-05-20T22:29:32.536Z,15.80
2023-05-20T22:31:59.623Z,15.80
2023-05-20T22:34:28.912Z,15.60
2023-05-20T22:36:55.731Z,15.60
2023-05-20T22:39:22.462Z,15.70
2023-05-20T22:41:51.590Z,15.70
2023-05-20T22:44:18.321Z,15.80
2023-05-20T22:46:47.466Z,15.80
2023-05-20T22:49:14.669Z,15.70
2023-05-20T22:51:43.710Z,15.70
2023-05-20T23:31:16.364Z,15.10
2023-05-20T23:36:17.632Z,14.90
2023-05-20T23:38:45.016Z,14.90
2023-05-20T23:41:11.804Z,14.90
2023-05-20T23:43:41.324Z,14.90
2023-05-20T23:46:08.398Z,14.90
2023-05-20T23:48:35.989Z,14.80
2023-05-20T23:51:03.312Z,14.70
2023-05-20T23:53:30.175Z,14.70
2023-05-20T23:55:56.884Z,14.70
2023-05-20T23:58:23.703Z,14.70
